Time;durP1;ratioP1;P1;durP2;ratioP2;P2;SDS_P1;SDS_P2;PMS_P1;PMS_P2;Temp;Humidity;BMP_temperature;BMP_pressure;BME280_temperature;BME280_humidity;BME280_pressure;Samples;Min_cycle;Max_cycle;Signal;HPM_P1;HPM_P2
2023/06/19 00:02:14;;;;;;;1999.90;999.90;;;;;;;19.69;65.36;97801.97;4975327;28;20039;-75
2023/06/19 00:04:39;;;;;;;1999.90;999.90;;;;;;;19.78;65.39;97808.13;4992952;28;20033;-74
2023/06/19 00:07:04;;;;;;;1999.90;999.90;;;;;;;19.60;66.40;97798.56;4993100;28;20033;-74
2023/06/19 00:09:30;;;;;;;1999.90;999.90;;;;;;;19.57;66.71;97804.84;4993313;28;20030;-75
2023/06/19 00:11:55;;;;;;;1999.90;999.90;;;;;;;19.54;67.07;97800.00;4993672;28;20038;-76
2023/06/19 00:14:20;;;;;;;1999.90;999.90;;;;;;;19.57;67.50;97807.59;4993426;28;20102;-75
2023/06/19 00:16:46;;;;;;;1999.90;999.90;;;;;;;19.50;68.07;97805.44;4993359;28;20026;-74
2023/06/19 00:19:12;;;;;;;1999.90;999.90;;;;;;;19.45;68.29;97811.25;4993014;28;20574;-74
2023/06/19 00:21:38;;;;;;;1999.90;999.90;;;;;;;19.41;68.44;97812.34;4992292;28;20030;-74
2023/06/19 00:24:04;;;;;;;1999.90;999.90;;;;;;;19.37;68.97;97805.84;4992331;28;20037;-74
2023/06/19 00:26:29;;;;;;;1999.90;999.90;;;;;;;19.26;69.16;97802.81;4992383;28;20117;-75
2023/06/19 00:28:55;;;;;;;1999.90;999.90;;;;;;;19.30;69.53;97805.66;4992094;28;20528;-74
2023/06/19 00:31:20;;;;;;;1999.90;999.90;;;;;;;19.35;69.91;97808.19;4992268;28;20054;-74
2023/06/19 00:33:47;;;;;;;1999.90;999.90;;;;;;;19.32;70.28;97800.56;4992311;28;20027;-75
2023/06/19 00:36:15;;;;;;;1999.90;999.90;;;;;;;19.32;70.68;97803.34;4991829;28;20496;-74
2023/06/19 00:38:41;;;;;;;1999.90;999.90;;;;;;;19.26;70.58;97800.81;4974705;28;20435;-73
2023/06/19 00:41:08;;;;;;;1999.90;999.90;;;;;;;19.21;70.63;97797.50;4992003;28;20034;-75
2023/06/19 00:43:34;;;;;;;1999.90;999.90;;;;;;;19.25;71.85;97802.00;4974615;28;20019;-75
2023/06/19 00:46:00;;;;;;;1999.90;999.90;;;;;;;19.20;72.66;97796.69;4977234;28;20523;-74
2023/06/19 00:48:30;;;;;;;1999.90;999.90;;;;;;;19.23;73.03;97801.53;4992904;28;20061;-74
2023/06/19 00:50:56;;;;;;;1999.90;999.90;;;;;;;19.23;72.81;97807.06;4992024;28;20026;-74
2023/06/19 00:53:22;;;;;;;1999.90;999.90;;;;;;;19.20;73.35;97802.22;4974335;28;20022;-74
2023/06/19 00:55:48;;;;;;;1999.90;999.90;;;;;;;19.14;74.02;97798.13;4991687;28;20037;-75
2023/06/19 00:58:14;;;;;;;1999.90;999.90;;;;;;;19.13;74.25;97804.84;4974131;28;20011;-75
2023/06/19 01:00:39;;;;;;;1999.90;999.90;;;;;;;19.16;75.61;97806.09;4991516;28;20073;-74
2023/06/19 01:03:05;;;;;;;1999.90;999.90;;;;;;;19.03;75.84;97801.75;4974803;28;20065;-75
2023/06/19 01:05:30;;;;;;;1999.90;999.90;;;;;;;18.99;76.77;97806.41;4980799;28;20045;-75
2023/06/19 01:08:08;;;;;;;1999.90;999.90;;;;;;;18.94;78.04;97796.38;4995031;28;20027;-74
2023/06/19 01:11:01;;;;;;;1999.90;999.90;;;;;;;18.96;78.04;97802.38;4991642;28;20054;-75
2023/06/19 01:13:34;;;;;;;1999.90;999.90;;;;;;;18.92;78.33;97795.91;4988731;28;20129;-75
2023/06/19 01:16:03;;;;;;;1999.90;999.90;;;;;;;18.81;78.69;97794.81;4991440;28;20034;-74
2023/06/19 01:18:30;;;;;;;1999.90;999.90;;;;;;;18.80;79.16;97803.47;4992028;28;20089;-75
2023/06/19 01:20:56;;;;;;;1999.90;999.90;;;;;;;18.75;79.37;97795.41;4976142;28;20121;-74
2023/06/19 01:23:21;;;;;;;1999.90;999.90;;;;;;;18.82;79.92;97813.06;4993806;28;20564;-76
2023/06/19 01:25:46;;;;;;;1999.90;999.90;;;;;;;18.78;80.26;97806.63;4991812;28;20025;-75
2023/06/19 01:28:12;;;;;;;1999.90;999.90;;;;;;;18.75;80.30;97796.22;4991477;28;20030;-75
2023/06/19 01:30:43;;;;;;;1999.90;999.90;;;;;;;18.77;80.06;97793.91;4973846;28;20022;-74
2023/06/19 01:33:23;;;;;;;1999.90;999.90;;;;;;;18.67;80.71;97799.94;4990983;28;20431;-75
2023/06/19 01:35:50;;;;;;;1999.90;999.90;;;;;;;18.60;81.23;97794.22;4991117;28;20081;-75
2023/06/19 01:38:17;;;;;;;1999.90;999.90;;;;;;;18.56;82.31;97799.66;4991201;28;20074;-75
2023/06/19 01:40:42;;;;;;;1999.90;999.90;;;;;;;18.60;82.55;97800.56;4973637;28;20399;-75
2023/06/19 01:43:09;;;;;;;1999.90;999.90;;;;;;;18.50;82.49;97797.47;4973549;28;20117;-75
2023/06/19 01:45:35;;;;;;;1999.90;999.90;;;;;;;18.50;82.70;97803.81;4991109;28;20034;-74
2023/06/19 01:48:00;;;;;;;1999.90;999.90;;;;;;;18.47;82.94;97800.91;4991231;28;20531;-75
2023/06/19 01:50:25;;;;;;;1999.90;999.90;;;;;;;18.35;83.81;97804.53;4990987;28;20030;-75
2023/06/19 01:52:51;;;;;;;1999.90;999.90;;;;;;;18.31;84.18;97802.78;4991316;28;20105;-75
2023/06/19 01:55:18;;;;;;;1999.90;999.90;;;;;;;18.27;84.21;97790.78;4973447;28;20122;-75
2023/06/19 01:57:45;;;;;;;1999.90;999.90;;;;;;;18.40;83.75;97793.19;4990838;28;20022;-75
2023/06/19 02:00:12;;;;;;;1999.90;999.90;;;;;;;18.41;84.05;97796.78;4993427;28;20026;-74
2023/06/19 02:02:37;;;;;;;1999.90;999.90;;;;;;;18.38;83.39;97791.94;4977429;28;20050;-76
2023/06/19 02:05:02;;;;;;;1999.90;999.90;;;;;;;18.26;85.32;97791.97;4994926;28;20104;-75
2023/06/19 02:07:28;;;;;;;1999.90;999.90;;;;;;;18.15;86.20;97797.16;4994949;28;20029;-75
2023/06/19 02:09:53;;;;;;;1999.90;999.90;;;;;;;18.08;87.73;97789.44;4995157;28;20438;-76
2023/06/19 02:12:18;;;;;;;1999.90;999.90;;;;;;;17.93;88.72;97792.91;4995025;28;20140;-75
2023/06/19 02:14:44;;;;;;;1999.90;999.90;;;;;;;17.86;89.41;97786.34;4994530;28;20026;-75
2023/06/19 02:17:09;;;;;;;1999.90;999.90;;;;;;;17.81;89.74;97794.88;4977204;28;20041;-74
2023/06/19 02:19:34;;;;;;;1999.90;999.90;;;;;;;17.75;90.45;97786.03;4994937;28;20034;-75
2023/06/19 02:22:00;;;;;;;1999.90;999.90;;;;;;;17.94;90.70;97805.63;4994519;28;20041;-75
2023/06/19 02:24:25;;;;;;;1999.90;999.90;;;;;;;17.88;90.16;97795.94;4994885;28;20480;-75
2023/06/19 02:26:51;;;;;;;1999.90;999.90;;;;;;;17.93;89.77;97804.00;4994504;28;20376;-75
2023/06/19 02:29:16;;;;;;;1999.90;999.90;;;;;;;17.83;90.42;97798.09;4994953;28;20065;-76
2023/06/19 02:31:42;;;;;;;1999.90;999.90;;;;;;;17.71;91.35;97796.16;4996596;28;20053;-76
2023/06/19 02:34:08;;;;;;;1999.90;999.90;;;;;;;17.73;91.99;97793.06;4994969;28;20041;-76
2023/06/19 02:36:35;;;;;;;1999.90;999.90;;;;;;;17.74;92.63;97794.66;4994686;28;20046;-75
2023/06/19 02:39:00;;;;;;;1999.90;999.90;;;;;;;17.75;92.54;97787.97;4994516;28;20026;-75
2023/06/19 02:41:26;;;;;;;1999.90;999.90;;;;;;;17.82;91.94;97797.31;4994371;28;20710;-74
2023/06/19 02:43:51;;;;;;;1999.90;999.90;;;;;;;17.74;92.53;97795.47;4977044;28;20479;-75
2023/06/19 02:46:16;;;;;;;1999.90;999.90;;;;;;;17.67;94.14;97800.75;4976716;28;20432;-75
2023/06/19 02:48:42;;;;;;;1999.90;999.90;;;;;;;17.54;94.87;97796.38;4994528;28;20038;-75
2023/06/19 02:51:07;;;;;;;1999.90;999.90;;;;;;;17.61;95.34;97791.06;4994177;28;20032;-74
2023/06/19 02:53:32;;;;;;;1999.90;999.90;;;;;;;17.52;95.27;97787.59;4976505;28;20030;-75
2023/06/19 02:55:58;;;;;;;1999.90;999.90;;;;;;;17.51;95.47;97791.53;4994232;28;20022;-75
2023/06/19 02:58:23;;;;;;;1999.90;999.90;;;;;;;17.48;97.11;97800.47;4994153;28;20054;-75
2023/06/19 03:00:49;;;;;;;1999.90;999.90;;;;;;;17.43;97.47;97800.72;4994035;28;20037;-75
2023/06/19 03:03:14;;;;;;;1999.90;999.90;;;;;;;17.39;98.34;97802.53;4976318;28;20045;-76
2023/06/19 03:05:39;;;;;;;1999.90;999.90;;;;;;;17.27;99.59;97799.75;4993846;28;20038;-76
2023/06/19 03:08:05;;;;;;;1999.90;999.90;;;;;;;17.21;100.00;97810.22;5011181;28;20060;-77
2023/06/19 03:10:31;;;;;;;1999.90;999.90;;;;;;;17.31;100.00;97797.94;4984923;28;20049;-75
2023/06/19 03:12:58;;;;;;;1999.90;999.90;;;;;;;17.41;100.00;97808.56;4975828;28;20027;-75
2023/06/19 03:15:23;;;;;;;1999.90;999.90;;;;;;;17.43;100.00;97818.13;4999398;28;20030;-76
2023/06/19 03:17:49;;;;;;;1999.90;999.90;;;;;;;17.41;100.00;97817.66;5000135;28;20061;-75
2023/06/19 03:20:14;;;;;;;1999.90;999.90;;;;;;;17.38;100.00;97820.31;4994204;28;20026;-76
2023/06/19 03:22:40;;;;;;;1999.90;999.90;;;;;;;17.29;100.00;97825.13;4993396;28;20022;-75
2023/06/19 03:25:07;;;;;;;1999.90;999.90;;;;;;;17.20;100.00;97829.94;4976127;28;20105;-77
2023/06/19 03:27:32;;;;;;;1999.90;999.90;;;;;;;17.12;100.00;97821.38;4993427;28;20035;-76
2023/06/19 03:29:58;;;;;;;1999.90;999.90;;;;;;;17.10;100.00;97823.66;4993592;28;20041;-75
2023/06/19 03:32:23;;;;;;;1999.90;999.90;;;;;;;17.14;100.00;97816.31;4993292;28;20122;-75
2023/06/19 03:34:48;;;;;;;1999.90;999.90;;;;;;;17.25;100.00;97826.94;4993522;28;20069;-76
2023/06/19 03:37:14;;;;;;;1999.90;999.90;;;;;;;17.32;100.00;97827.97;4992912;28;20439;-77
2023/06/19 03:39:39;;;;;;;1999.90;999.90;;;;;;;17.48;100.00;97826.19;4993155;28;20034;-76
2023/06/19 03:42:05;;;;;;;1999.90;999.90;;;;;;;17.57;100.00;97826.91;4993088;28;20042;-76
2023/06/19 03:44:30;;;;;;;1999.90;999.90;;;;;;;17.70;100.00;97838.03;4993144;28;20037;-75
2023/06/19 03:46:55;;;;;;;1999.90;999.90;;;;;;;17.84;100.00;97842.06;4992885;28;20084;-76
2023/06/19 03:49:21;;;;;;;1999.90;999.90;;;;;;;17.97;100.00;97831.78;4994060;28;20018;-75
2023/06/19 03:51:46;;;;;;;1999.90;999.90;;;;;;;18.13;100.00;97829.94;4993298;28;20507;-75
2023/06/19 03:54:11;;;;;;;1999.90;999.90;;;;;;;18.32;98.92;97832.09;4992309;28;20018;-75
2023/06/19 03:56:37;;;;;;;1999.90;999.90;;;;;;;18.51;96.50;97833.13;4993065;28;20149;-75
2023/06/19 03:59:03;;;;;;;1999.90;999.90;;;;;;;18.69;96.81;97841.97;4992889;28;20102;-77
2023/06/19 04:01:28;;;;;;;1999.90;999.90;;;;;;;18.94;92.15;97837.97;4992706;28;20042;-77
2023/06/19 04:03:53;;;;;;;1999.90;999.90;;;;;;;19.17;90.73;97847.31;4975262;28;20062;-75
2023/06/19 04:06:19;;;;;;;1999.90;999.90;;;;;;;19.27;88.36;97832.94;4992650;28;20027;-77
2023/06/19 04:08:44;;;;;;;1999.90;999.90;;;;;;;19.41;86.23;97840.88;4984965;28;20457;-75
2023/06/19 04:11:09;;;;;;;1999.90;999.90;;;;;;;19.45;85.65;97852.09;4985183;28;20041;-76
2023/06/19 04:13:35;;;;;;;1999.90;999.90;;;;;;;19.56;85.67;97842.88;4993243;28;20026;-79
2023/06/19 04:16:00;;;;;;;1999.90;999.90;;;;;;;19.74;85.15;97843.31;4976999;28;20415;-80
2023/06/19 04:18:27;;;;;;;1999.90;999.90;;;;;;;19.89;84.17;97845.28;4973130;28;20118;-80
2023/06/19 04:20:53;;;;;;;1999.90;999.90;;;;;;;19.90;82.29;97860.78;4960130;28;20520;-82
2023/06/19 04:23:18;;;;;;;1999.90;999.90;;;;;;;19.85;81.79;97851.94;4974851;28;20042;-79
2023/06/19 04:25:43;;;;;;;1999.90;999.90;;;;;;;19.73;82.38;97845.28;4955682;28;20030;-79
2023/06/19 04:28:09;;;;;;;1999.90;999.90;;;;;;;19.61;82.62;97850.09;4991640;28;20041;-79
2023/06/19 04:30:34;;;;;;;1999.90;999.90;;;;;;;19.53;84.08;97845.56;4992455;28;20531;-82
2023/06/19 04:32:59;;;;;;;1999.90;999.90;;;;;;;19.49;84.80;97852.97;4975572;28;20575;-82
2023/06/19 04:35:25;;;;;;;1999.90;999.90;;;;;;;19.44;85.31;97854.06;4975351;28;20030;-75
2023/06/19 04:37:50;;;;;;;1999.90;999.90;;;;;;;19.41;86.09;97857.53;4991640;28;20066;-76
2023/06/19 04:40:15;;;;;;;1999.90;999.90;;;;;;;19.31;87.01;97857.19;4974181;28;20034;-75
2023/06/19 04:42:41;;;;;;;1999.90;999.90;;;;;;;19.29;87.76;97859.53;4991813;28;20038;-75
2023/06/19 04:45:07;;;;;;;1999.90;999.90;;;;;;;19.27;87.13;97862.66;4991731;28;20037;-77
2023/06/19 04:47:33;;;;;;;1999.90;999.90;;;;;;;19.29;86.87;97862.31;4994020;28;20387;-76
2023/06/19 04:49:58;;;;;;;1999.90;999.90;;;;;;;19.23;87.19;97859.78;5006867;28;20026;-75
2023/06/19 04:52:23;;;;;;;1999.90;999.90;;;;;;;19.24;88.17;97864.16;4990722;28;20034;-74
2023/06/19 04:54:49;;;;;;;1999.90;999.90;;;;;;;19.22;87.86;97860.13;5010294;28;20030;-77
2023/06/19 04:57:14;;;;;;;1999.90;999.90;;;;;;;19.27;87.59;97863.47;5010858;28;20022;-75
2023/06/19 04:59:40;;;;;;;1999.90;999.90;;;;;;;19.31;87.65;97862.75;5010719;28;20080;-77
2023/06/19 05:02:07;;;;;;;1999.90;999.90;;;;;;;19.27;86.65;97869.00;5006459;28;20160;-80
2023/06/19 05:04:32;;;;;;;1999.90;999.90;;;;;;;19.34;85.87;97865.63;5003793;28;20042;-79
2023/06/19 05:06:58;;;;;;;1999.90;999.90;;;;;;;19.33;85.67;97868.78;4984188;28;20029;-80
2023/06/19 05:09:24;;;;;;;1999.90;999.90;;;;;;;19.30;85.63;97872.22;5007666;28;20499;-78
2023/06/19 05:11:49;;;;;;;1999.90;999.90;;;;;;;19.22;84.18;97866.50;4999904;28;20141;-75
2023/06/19 05:14:14;;;;;;;1999.90;999.90;;;;;;;19.31;83.79;97873.84;4991245;28;20038;-75
2023/06/19 05:16:40;;;;;;;1999.90;999.90;;;;;;;19.44;82.80;97869.88;4991281;28;20026;-77
2023/06/19 05:19:05;;;;;;;1999.90;999.90;;;;;;;19.58;82.77;97871.06;4991321;28;20035;-74
2023/06/19 05:21:30;;;;;;;1999.90;999.90;;;;;;;19.64;82.57;97874.41;4994362;28;20357;-76
2023/06/19 05:23:56;;;;;;;1999.90;999.90;;;;;;;19.80;82.66;97875.19;4980627;28;20039;-76
2023/06/19 05:26:22;;;;;;;1999.90;999.90;;;;;;;19.88;81.48;97877.00;4975649;28;20062;-76
2023/06/19 05:28:48;;;;;;;1999.90;999.90;;;;;;;19.92;81.03;97877.09;4991640;28;20030;-75
2023/06/19 05:31:14;;;;;;;1999.90;999.90;;;;;;;20.01;80.28;97884.09;4993230;28;20049;-74
2023/06/19 05:33:40;;;;;;;1999.90;999.90;;;;;;;20.09;78.66;97871.97;4982622;28;20049;-75
2023/06/19 05:36:06;;;;;;;1999.90;999.90;;;;;;;20.13;78.92;97878.44;4999799;28;20042;-76
2023/06/19 05:38:31;;;;;;;1999.90;999.90;;;;;;;20.19;79.70;97877.00;4998939;28;20513;-75
2023/06/19 05:40:58;;;;;;;1999.90;999.90;;;;;;;20.30;77.80;97880.03;5001114;28;20077;-75
2023/06/19 05:43:24;;;;;;;1999.90;999.90;;;;;;;20.41;76.80;97877.53;4994862;28;20114;-74
2023/06/19 05:45:50;;;;;;;1999.90;999.90;;;;;;;20.58;76.01;97889.03;4990533;28;20031;-75
2023/06/19 05:48:15;;;;;;;1999.90;999.90;;;;;;;20.64;73.73;97875.69;4990561;28;20075;-75
2023/06/19 05:50:41;;;;;;;1999.90;999.90;;;;;;;20.82;73.49;97885.22;4991334;28;20030;-75
2023/06/19 05:53:06;;;;;;;1999.90;999.90;;;;;;;20.93;73.19;97880.69;4990810;28;20447;-74
2023/06/19 05:55:31;;;;;;;1999.90;999.90;;;;;;;20.98;72.38;97880.41;4990787;28;20509;-76
2023/06/19 05:57:57;;;;;;;1999.90;999.90;;;;;;;21.12;71.44;97879.94;4990708;28;20057;-76
2023/06/19 06:00:22;;;;;;;1999.90;999.90;;;;;;;21.18;70.96;97879.28;4990667;28;20022;-75
2023/06/19 06:02:48;;;;;;;1999.90;999.90;;;;;;;21.31;68.47;97880.72;4990932;28;20061;-75
2023/06/19 06:05:14;;;;;;;1999.90;999.90;;;;;;;21.40;67.86;97879.69;4990828;28;20042;-76
2023/06/19 06:07:39;;;;;;;1999.90;999.90;;;;;;;21.58;67.11;97873.28;4996020;28;20399;-75
2023/06/19 06:10:05;;;;;;;1999.90;999.90;;;;;;;21.61;65.06;97871.75;4974314;28;20455;-76
2023/06/19 06:12:34;;;;;;;1999.90;999.90;;;;;;;21.69;65.57;97865.13;4957370;28;20031;-74
2023/06/19 06:15:00;;;;;;;1999.90;999.90;;;;;;;21.79;64.22;97882.06;4973319;28;20085;-78
2023/06/19 06:17:25;;;;;;;1999.90;999.90;;;;;;;21.92;64.20;97879.91;4991068;28;20015;-75
2023/06/19 06:19:50;;;;;;;1999.90;999.90;;;;;;;22.03;63.94;97875.31;4975228;28;20478;-74
2023/06/19 06:22:16;;;;;;;1999.90;999.90;;;;;;;22.23;63.13;97890.81;4993043;28;20064;-77
2023/06/19 06:24:41;;;;;;;1999.90;999.90;;;;;;;22.35;61.63;97879.44;4991250;28;20030;-77
2023/06/19 06:27:06;;;;;;;1999.90;999.90;;;;;;;22.34;62.75;97877.03;4990174;28;20022;-75
2023/06/19 06:29:32;;;;;;;1999.90;999.90;;;;;;;22.44;62.29;97879.19;4990841;28;20065;-75
2023/06/19 06:32:07;;;;;;;1999.90;999.90;;;;;;;22.70;60.70;97876.41;4990783;28;20030;-75
2023/06/19 06:34:35;;;;;;;1999.90;999.90;;;;;;;22.89;59.12;97873.50;4990639;28;20045;-77
2023/06/19 06:37:01;;;;;;;1999.90;999.90;;;;;;;23.03;58.13;97878.44;4972775;28;20043;-75
2023/06/19 06:39:26;;;;;;;1999.90;999.90;;;;;;;23.18;57.99;97862.72;4990652;28;20030;-75
2023/06/19 06:41:52;;;;;;;1999.90;999.90;;;;;;;23.23;59.13;97863.16;4990636;28;20045;-74
2023/06/19 06:44:18;;;;;;;1999.90;999.90;;;;;;;23.41;59.25;97855.81;4973213;28;20030;-74
2023/06/19 06:46:43;;;;;;;1999.90;999.90;;;;;;;23.59;61.25;97858.81;4992385;28;20027;-76
2023/06/19 06:49:08;;;;;;;1999.90;999.90;;;;;;;23.67;61.27;97854.91;4994203;28;20391;-76
2023/06/19 06:51:34;;;;;;;1999.90;999.90;;;;;;;23.68;59.89;97864.09;4977055;28;20026;-76
2023/06/19 06:53:59;;;;;;;1999.90;999.90;;;;;;;23.71;59.21;97863.34;4993603;28;20030;-77
2023/06/19 06:56:24;;;;;;;1999.90;999.90;;;;;;;23.85;59.10;97866.25;4994233;28;20439;-74
2023/06/19 06:58:50;;;;;;;1999.90;999.90;;;;;;;23.95;58.01;97868.34;4994104;28;20054;-75
2023/06/19 07:01:15;;;;;;;1999.90;999.90;;;;;;;24.00;57.71;97856.81;4994066;28;20038;-75
2023/06/19 07:03:40;;;;;;;1999.90;999.90;;;;;;;23.95;57.11;97868.34;4976562;28;20022;-75
2023/06/19 07:06:06;;;;;;;1999.90;999.90;;;;;;;24.03;57.42;97863.63;4994109;28;20038;-77
2023/06/19 07:08:31;;;;;;;1999.90;999.90;;;;;;;24.07;57.74;97865.25;4993841;28;20023;-75
2023/06/19 07:10:56;;;;;;;1999.90;999.90;;;;;;;23.95;57.81;97862.75;4993666;28;20038;-74
2023/06/19 07:13:22;;;;;;;1999.90;999.90;;;;;;;24.03;57.42;97864.41;4993647;28;20045;-74
2023/06/19 07:15:47;;;;;;;1999.90;999.90;;;;;;;24.17;55.91;97867.38;4993758;28;20037;-74
2023/06/19 07:18:13;;;;;;;1999.90;999.90;;;;;;;24.22;56.08;97855.81;4993302;28;20023;-75
2023/06/19 07:20:38;;;;;;;1999.90;999.90;;;;;;;24.36;56.45;97858.75;4976408;28;20496;-76
2023/06/19 07:23:03;;;;;;;1999.90;999.90;;;;;;;24.51;55.38;97868.84;4993577;28;20022;-76
2023/06/19 07:25:29;;;;;;;1999.90;999.90;;;;;;;24.62;54.07;97863.28;4993840;28;20030;-77
2023/06/19 07:27:54;;;;;;;1999.90;999.90;;;;;;;24.76;54.21;97863.41;4976236;28;20034;-75
2023/06/19 07:30:20;;;;;;;1999.90;999.90;;;;;;;24.87;52.98;97869.09;4993593;28;20030;-76
2023/06/19 07:32:45;;;;;;;1999.90;999.90;;;;;;;24.95;53.47;97859.53;4994418;28;20026;-75
2023/06/19 07:35:11;;;;;;;1999.90;999.90;;;;;;;24.78;52.81;97865.78;5001117;28;20050;-77
2023/06/19 07:37:36;;;;;;;1999.90;999.90;;;;;;;24.90;52.74;97866.28;4997430;28;20069;-75
2023/06/19 07:40:02;;;;;;;1999.90;999.90;;;;;;;24.91;53.17;97861.50;4993487;28;20027;-77
2023/06/19 07:42:27;;;;;;;1999.90;999.90;;;;;;;24.93;53.61;97857.13;4993257;28;20069;-77
2023/06/19 07:44:53;;;;;;;1999.90;999.90;;;;;;;25.06;54.08;97860.38;4993103;28;20069;-75
2023/06/19 07:47:18;;;;;;;1999.90;999.90;;;;;;;25.15;54.37;97858.03;4993463;28;20044;-76
2023/06/19 07:49:45;;;;;;;1999.90;999.90;;;;;;;25.30;54.56;97858.88;4976333;28;20026;-75
2023/06/19 07:52:10;;;;;;;1999.90;999.90;;;;;;;25.40;52.64;97853.34;4994166;28;20054;-76
2023/06/19 07:54:35;;;;;;;1999.90;999.90;;;;;;;25.41;51.42;97860.53;4983808;28;20038;-74
2023/06/19 07:57:01;;;;;;;1999.90;999.90;;;;;;;25.65;51.91;97858.22;4993023;28;20530;-75
2023/06/19 07:59:27;;;;;;;1999.90;999.90;;;;;;;25.88;52.54;97855.84;4993077;28;20402;-75
2023/06/19 08:01:52;;;;;;;1999.90;999.90;;;;;;;26.31;51.03;97846.31;4993034;28;20470;-76
2023/06/19 08:04:17;;;;;;;1999.90;999.90;;;;;;;26.88;49.48;97847.00;4992923;28;20527;-76
2023/06/19 08:06:43;;;;;;;1999.90;999.90;;;;;;;27.35;46.79;97854.06;4993067;28;20032;-75
2023/06/19 08:09:08;;;;;;;1999.90;999.90;;;;;;;27.45;46.45;97858.88;4992925;28;20492;-74
2023/06/19 08:11:35;;;;;;;1999.90;999.90;;;;;;;27.43;46.21;97854.88;4992457;28;20785;-76
2023/06/19 08:14:00;;;;;;;1999.90;999.90;;;;;;;27.40;46.11;97855.66;4992747;28;20038;-75
2023/06/19 08:16:26;;;;;;;1999.90;999.90;;;;;;;27.47;47.12;97850.81;4992342;28;20117;-75
2023/06/19 08:18:51;;;;;;;1999.90;999.90;;;;;;;27.47;45.94;97850.03;4992472;28;20026;-77
2023/06/19 08:21:17;;;;;;;1999.90;999.90;;;;;;;27.68;46.61;97847.09;4975139;28;20149;-75
2023/06/19 08:23:43;;;;;;;1999.90;999.90;;;;;;;27.93;45.61;97852.56;4993022;28;20061;-75
2023/06/19 08:26:10;;;;;;;1999.90;999.90;;;;;;;28.29;44.09;97851.09;4992245;28;20026;-77
2023/06/19 08:28:35;;;;;;;1999.90;999.90;;;;;;;28.33;43.76;97845.44;4992418;28;20045;-76
2023/06/19 08:31:01;;;;;;;1999.90;999.90;;;;;;;28.59;43.93;97854.03;4999444;28;20026;-76
2023/06/19 08:33:26;;;;;;;1999.90;999.90;;;;;;;29.11;41.84;97859.53;4992880;28;20029;-78
2023/06/19 08:35:52;;;;;;;1999.90;999.90;;;;;;;29.55;40.70;97859.41;4995516;28;20056;-79
2023/06/19 08:38:18;;;;;;;1999.90;999.90;;;;;;;29.85;38.87;97860.66;4992634;28;20472;-80
2023/06/19 08:40:43;;;;;;;1999.90;999.90;;;;;;;30.24;37.93;97855.19;4993962;28;20081;-78
2023/06/19 08:43:09;;;;;;;1999.90;999.90;;;;;;;30.63;38.45;97858.19;4977936;28;20096;-82
2023/06/19 08:45:35;;;;;;;1999.90;999.90;;;;;;;31.10;37.73;97849.66;4989047;28;20039;-77
2023/06/19 08:48:03;;;;;;;1999.90;999.90;;;;;;;31.45;35.98;97854.56;4979693;28;20033;-82
2023/06/19 08:50:32;;;;;;;1999.90;999.90;;;;;;;32.07;35.53;97847.97;4972846;28;20036;-77
2023/06/19 08:52:57;;;;;;;1999.90;999.90;;;;;;;32.65;34.43;97848.97;4972777;28;20401;-79
2023/06/19 08:55:23;;;;;;;1999.90;999.90;;;;;;;33.24;32.26;97854.25;4972285;28;20815;-79
2023/06/19 08:57:50;;;;;;;1999.90;999.90;;;;;;;33.26;31.56;97853.81;4972102;28;20126;-82
2023/06/19 09:00:26;;;;;;;1999.90;999.90;;;;;;;33.25;30.61;97857.88;4972678;28;20476;-80
2023/06/19 09:03:00;;;;;;;1999.90;999.90;;;;;;;33.59;30.65;97858.09;4972429;28;20492;-79
2023/06/19 09:05:25;;;;;;;1999.90;999.90;;;;;;;33.95;30.43;97854.19;4971952;28;20023;-78
2023/06/19 09:08:00;;;;;;;1999.90;999.90;;;;;;;34.26;29.83;97855.22;4972292;28;20543;-80
2023/06/19 09:10:26;;;;;;;1999.90;999.90;;;;;;;34.59;29.23;97855.75;4971332;28;20015;-79
2023/06/19 09:13:03;;;;;;;1999.90;999.90;;;;;;;34.75;28.79;97845.03;4972076;28;20143;-78
2023/06/19 09:15:34;;;;;;;1999.90;999.90;;;;;;;34.69;28.96;97849.72;4972245;28;20487;-78
2023/06/19 09:18:04;;;;;;;1999.90;999.90;;;;;;;34.86;29.15;97848.31;4972259;28;20037;-78
2023/06/19 09:20:30;;;;;;;1999.90;999.90;;;;;;;34.41;29.69;97840.09;4971924;28;20038;-77
2023/06/19 09:22:56;;;;;;;1999.90;999.90;;;;;;;34.58;29.86;97837.91;4955012;28;20031;-77
2023/06/19 09:25:23;;;;;;;1999.90;999.90;;;;;;;34.43;30.18;97840.44;4972094;28;20027;-76
2023/06/19 09:27:49;;;;;;;1999.90;999.90;;;;;;;34.74;30.27;97837.75;4972195;28;20026;-78
2023/06/19 09:30:17;;;;;;;1999.90;999.90;;;;;;;34.74;30.05;97845.53;4972308;28;20035;-80
2023/06/19 09:32:42;;;;;;;1999.90;999.90;;;;;;;35.06;30.25;97836.63;4972429;28;20035;-79
2023/06/19 09:35:08;;;;;;;1999.90;999.90;;;;;;;34.61;29.62;97833.38;4977127;28;20084;-79
2023/06/19 09:37:33;;;;;;;1999.90;999.90;;;;;;;34.83;30.12;97837.88;4989026;28;20117;-77
2023/06/19 09:40:01;;;;;;;1999.90;999.90;;;;;;;34.67;30.40;97840.06;4993004;28;20038;-78
2023/06/19 09:42:28;;;;;;;1999.90;999.90;;;;;;;34.74;30.60;97832.06;5000704;28;20283;-74
2023/06/19 09:44:59;;;;;;;1999.90;999.90;;;;;;;34.90;30.28;97829.06;4993841;28;20034;-75
2023/06/19 09:47:26;;;;;;;1999.90;999.90;;;;;;;34.12;31.13;97827.28;5007859;28;20041;-73
2023/06/19 09:49:55;;;;;;;1999.90;999.90;;;;;;;34.06;31.37;97820.56;4992326;28;20034;-73
2023/06/19 09:52:23;;;;;;;1999.90;999.90;;;;;;;34.63;31.20;97823.13;4974931;28;20019;-73
2023/06/19 09:54:53;;;;;;;1999.90;999.90;;;;;;;34.83;30.54;97835.03;4991279;28;20050;-73
2023/06/19 09:57:21;;;;;;;1999.90;999.90;;;;;;;34.76;30.52;97829.59;4990503;28;20089;-75
2023/06/19 09:59:58;;;;;;;1999.90;999.90;;;;;;;34.86;30.40;97831.25;4990887;28;20022;-74
2023/06/19 10:02:26;;;;;;;1999.90;999.90;;;;;;;34.27;30.87;97826.34;4974486;28;20443;-75
2023/06/19 10:04:55;;;;;;;1999.90;999.90;;;;;;;34.41;30.79;97833.63;4990526;28;20360;-73
2023/06/19 10:07:27;;;;;;;1999.90;999.90;;;;;;;34.70;30.51;97817.22;4990694;28;20058;-74
2023/06/19 10:10:01;;;;;;;1999.90;999.90;;;;;;;35.17;29.94;97817.16;4990405;28;20472;-73
2023/06/19 10:12:43;;;;;;;1999.90;999.90;;;;;;;35.50;29.32;97823.22;4975410;28;20030;-73
2023/06/19 10:15:14;;;;;;;1999.90;999.90;;;;;;;35.28;29.33;97816.75;4990453;28;20027;-73
2023/06/19 10:17:51;;;;;;;1999.90;999.90;;;;;;;35.61;28.95;97817.94;4989904;28;20018;-73
2023/06/19 10:20:23;;;;;;;1999.90;999.90;;;;;;;34.77;29.68;97819.78;4989700;28;20041;-74
2023/06/19 10:22:56;;;;;;;1999.90;999.90;;;;;;;34.38;30.58;97817.47;4993573;28;20018;-76
2023/06/19 10:25:23;;;;;;;1999.90;999.90;;;;;;;33.63;31.60;97818.28;4994640;28;20041;-73
2023/06/19 10:27:52;;;;;;;1999.90;999.90;;;;;;;33.53;31.84;97808.00;4994533;28;20038;-75
2023/06/19 10:30:21;;;;;;;1999.90;999.90;;;;;;;33.40;31.52;97813.66;4976706;28;20037;-74
2023/06/19 10:32:47;;;;;;;1999.90;999.90;;;;;;;33.67;31.79;97805.56;4998518;28;20034;-75
2023/06/19 10:35:14;;;;;;;1999.90;999.90;;;;;;;33.56;32.44;97810.75;4994194;28;20026;-73
2023/06/19 10:37:40;;;;;;;1999.90;999.90;;;;;;;33.44;32.37;97813.56;4984977;28;20050;-73
2023/06/19 10:40:10;;;;;;;1999.90;999.90;;;;;;;33.09;32.32;97807.69;4993001;28;20365;-73
2023/06/19 10:42:39;;;;;;;1999.90;999.90;;;;;;;32.56;33.40;97813.97;4996731;28;20090;-74
2023/06/19 10:45:06;;;;;;;1999.90;999.90;;;;;;;32.11;34.22;97800.53;4996490;28;20157;-73
2023/06/19 10:47:32;;;;;;;1999.90;999.90;;;;;;;31.81;34.68;97801.66;4995725;28;20026;-74
2023/06/19 10:49:58;;;;;;;1999.90;999.90;;;;;;;31.52;34.99;97797.88;4996049;28;20038;-75
2023/06/19 10:52:23;;;;;;;1999.90;999.90;;;;;;;31.71;35.39;97799.88;4996023;28;20169;-74